Milford on Sea, United Kingdom
Current Conditions -  °F | °C
As of 8:20 PM on Thursday 27 Nov 2014 (Local Time) from EGHH Reporting Station
Few Clouds Few Clouds  
Wind Chill: 43°   Ceiling: Unl
Heat Index: 46°   Visibility: 6mi
Dew Point: 46°   Wind: 7mph
Humidity: 100%   Direction: 90°E
Pressure: 29.53"   Gusts: NA
Location:  50.73°N, 1.59°W
Report Text: EGHH 272020Z 09006KT 9000 FEW019 08/08 Q1000
Loading
Personal Weather Stations






























Interactive Weather Map New forecast layout! Learn more

10-Day Weather Forecast

Advertisements
Track Severe Weather on mobile